Time;durP1;ratioP1;P1;durP2;ratioP2;P2;SDS_P1;SDS_P2;PMS_P1;PMS_P2;Temp;Humidity;BMP_temperature;BMP_pressure;BME280_temperature;BME280_humidity;BME280_pressure;Samples;Min_cycle;Max_cycle;Signal;HPM_P1;HPM_P2
2023/07/11 00:00:17;;;;;;;3.63;3.53;;;;;;;25.60;46.15;99653.69;4956636;29;20656;-67
2023/07/11 00:02:44;;;;;;;3.60;3.30;;;;;;;25.69;45.47;99657.38;4956214;29;20215;-67
2023/07/11 00:05:12;;;;;;;3.80;3.50;;;;;;;25.82;46.47;99652.06;4957604;28;20259;-68
2023/07/11 00:07:39;;;;;;;3.70;3.50;;;;;;;25.96;46.28;99647.53;4967794;28;20743;-67
2023/07/11 00:10:09;;;;;;;3.20;2.90;;;;;;;25.88;45.43;99661.75;4956208;29;20224;-67
2023/07/11 00:12:36;;;;;;;3.50;3.20;;;;;;;25.77;46.83;99654.84;4956634;29;20282;-67
2023/07/11 00:15:04;;;;;;;3.80;3.50;;;;;;;25.66;46.81;99666.94;4956707;29;20267;-68
2023/07/11 00:17:31;;;;;;;3.90;3.70;;;;;;;25.60;46.29;99654.47;4956358;29;20250;-67
2023/07/11 00:19:59;;;;;;;3.90;3.30;;;;;;;25.49;47.11;99646.75;4956318;29;20200;-67
2023/07/11 00:22:29;;;;;;;3.60;3.40;;;;;;;25.34;47.21;99660.50;4955370;28;20250;-66
2023/07/11 00:24:56;;;;;;;3.40;3.23;;;;;;;25.11;47.98;99655.81;4956616;29;20223;-67
2023/07/11 00:27:24;;;;;;;3.83;3.63;;;;;;;24.90;48.81;99647.84;4955979;29;20255;-67
2023/07/11 00:29:51;;;;;;;5.17;3.63;;;;;;;24.67;49.29;99640.41;4956366;29;20233;-67
2023/07/11 00:32:18;;;;;;;7.27;3.80;;;;;;;24.54;49.71;99643.75;4955908;29;20852;-66
2023/07/11 00:34:45;;;;;;;4.37;4.10;;;;;;;24.53;49.87;99650.28;4956011;29;20196;-66
2023/07/11 00:37:12;;;;;;;3.57;3.37;;;;;;;24.66;49.98;99637.97;4955516;29;20562;-67
2023/07/11 00:39:39;;;;;;;4.17;3.87;;;;;;;24.61;49.57;99644.28;4956308;29;20200;-66
2023/07/11 00:42:07;;;;;;;5.00;3.97;;;;;;;24.39;49.88;99637.63;4956011;29;20211;-66
2023/07/11 00:44:53;;;;;;;6.33;3.83;;;;;;;24.24;50.52;99630.41;4956437;29;20200;-66
2023/07/11 00:47:20;;;;;;;6.10;4.30;;;;;;;24.20;50.79;99629.34;4955390;29;20632;-66
2023/07/11 00:49:48;;;;;;;5.60;3.90;;;;;;;24.22;50.85;99627.13;4955775;29;20205;-66
2023/07/11 00:52:17;;;;;;;4.73;4.20;;;;;;;24.38;51.75;99631.38;4955838;29;20283;-66
2023/07/11 00:54:46;;;;;;;4.10;3.90;;;;;;;24.35;50.62;99623.00;4956009;29;20275;-66
2023/07/11 00:57:15;;;;;;;4.90;3.97;;;;;;;24.29;50.45;99630.34;4954729;29;20207;-67
2023/07/11 00:59:43;;;;;;;6.93;4.63;;;;;;;24.33;49.93;99628.69;4955885;29;20274;-66
2023/07/11 01:02:14;;;;;;;4.20;3.90;;;;;;;24.50;50.43;99645.41;4955722;29;20196;-66
2023/07/11 01:04:42;;;;;;;4.37;3.93;;;;;;;24.65;50.45;99637.19;4955524;29;20244;-66
2023/07/11 01:07:11;;;;;;;4.03;3.80;;;;;;;24.77;49.74;99643.06;4966014;28;20195;-67
2023/07/11 01:09:38;;;;;;;4.50;4.10;;;;;;;24.87;49.71;99642.97;4955628;29;20223;-66
2023/07/11 01:12:12;;;;;;;4.33;4.03;;;;;;;25.00;50.19;99636.88;4955724;29;20223;-66
2023/07/11 01:14:40;;;;;;;4.37;4.10;;;;;;;25.11;49.75;99626.69;4955965;29;20203;-66
2023/07/11 01:17:25;;;;;;;4.80;4.50;;;;;;;25.14;49.76;99630.78;4954990;29;20188;-66
2023/07/11 01:19:54;;;;;;;4.67;4.27;;;;;;;25.20;49.51;99637.78;4954522;29;20192;-65
2023/07/11 01:22:22;;;;;;;4.50;4.20;;;;;;;25.23;48.82;99643.44;4954860;29;20275;-65
2023/07/11 01:24:50;;;;;;;4.63;4.30;;;;;;;25.20;48.90;99638.59;4955364;29;20267;-65
2023/07/11 01:27:17;;;;;;;4.47;4.10;;;;;;;25.18;49.51;99629.09;4954935;29;20200;-67
2023/07/11 01:29:43;;;;;;;4.93;4.40;;;;;;;25.23;49.31;99632.56;4954356;29;20711;-66
2023/07/11 01:32:11;;;;;;;4.77;4.43;;;;;;;25.14;49.02;99625.34;4954778;29;20220;-66
2023/07/11 01:34:37;;;;;;;4.83;4.43;;;;;;;25.12;50.11;99635.69;4955231;28;20282;-66
2023/07/11 01:37:04;;;;;;;5.97;5.20;;;;;;;25.08;48.61;99634.63;4955083;29;20250;-66
2023/07/11 01:39:32;;;;;;;4.53;4.23;;;;;;;25.02;49.29;99633.88;4954533;29;20231;-67
2023/07/11 01:41:59;;;;;;;5.50;5.00;;;;;;;25.00;49.11;99639.59;4955101;29;20200;-69
2023/07/11 01:44:26;;;;;;;5.30;4.83;;;;;;;24.90;50.63;99636.97;4955075;29;20235;-66
2023/07/11 01:46:53;;;;;;;5.90;5.10;;;;;;;24.86;49.21;99627.75;4954741;29;20243;-66
2023/07/11 01:49:19;;;;;;;8.47;5.40;;;;;;;24.74;50.11;99630.03;4953844;29;20741;-71
2023/07/11 01:51:47;;;;;;;8.67;5.00;;;;;;;24.71;50.18;99638.75;4954830;29;20565;-65
2023/07/11 01:54:15;;;;;;;6.57;4.63;;;;;;;24.66;50.37;99627.94;4954518;29;20219;-66
2023/07/11 01:56:43;;;;;;;5.03;4.63;;;;;;;24.51;50.47;99630.72;4954912;29;20261;-65
2023/07/11 01:59:09;;;;;;;6.27;4.63;;;;;;;24.42;50.67;99627.00;4954361;29;20734;-66
2023/07/11 02:01:36;;;;;;;6.30;4.90;;;;;;;24.41;51.21;99628.09;4954166;29;20270;-65
2023/07/11 02:04:03;;;;;;;27.63;6.87;;;;;;;24.34;51.98;99622.16;4954682;29;20195;-67
2023/07/11 02:06:30;;;;;;;8.80;4.73;;;;;;;24.38;51.64;99625.16;4966196;28;20579;-66
2023/07/11 02:08:56;;;;;;;10.37;4.87;;;;;;;24.34;51.33;99630.31;4962095;28;20239;-66
2023/07/11 02:11:23;;;;;;;4.70;4.37;;;;;;;24.29;51.60;99627.63;4954336;29;20188;-66
2023/07/11 02:13:51;;;;;;;4.77;4.50;;;;;;;24.41;51.66;99633.53;4954429;29;20227;-66
2023/07/11 02:16:18;;;;;;;5.53;4.40;;;;;;;24.35;51.50;99637.34;4953960;29;20275;-66
2023/07/11 02:18:44;;;;;;;4.63;4.43;;;;;;;24.35;52.15;99633.84;4954434;29;20207;-66
2023/07/11 02:21:11;;;;;;;4.67;4.33;;;;;;;24.37;51.78;99635.19;4954439;29;20200;-66
2023/07/11 02:23:38;;;;;;;4.97;4.57;;;;;;;24.41;52.08;99644.41;4954347;29;20235;-65
2023/07/11 02:26:04;;;;;;;8.23;4.73;;;;;;;24.39;52.23;99638.41;4953963;29;20251;-72
2023/07/11 02:28:31;;;;;;;5.60;4.90;;;;;;;24.44;52.05;99638.41;4953713;29;20625;-66
2023/07/11 02:30:59;;;;;;;5.10;4.70;;;;;;;24.46;52.35;99647.06;4954370;29;20204;-65
2023/07/11 02:33:26;;;;;;;5.33;4.93;;;;;;;24.51;51.93;99640.81;4954047;29;20288;-66
2023/07/11 02:35:52;;;;;;;5.87;4.33;;;;;;;24.43;51.92;99634.03;4953579;29;20247;-66
2023/07/11 02:38:19;;;;;;;6.53;4.80;;;;;;;24.35;51.89;99642.78;4953802;29;20623;-65
2023/07/11 02:40:46;;;;;;;5.00;4.60;;;;;;;24.32;51.55;99643.38;4953877;29;20755;-65
2023/07/11 02:43:12;;;;;;;4.90;4.47;;;;;;;24.31;51.19;99636.34;4954084;29;20262;-65
2023/07/11 02:45:40;;;;;;;6.90;4.30;;;;;;;24.32;50.88;99640.66;4953103;28;20199;-65
2023/07/11 02:48:08;;;;;;;4.30;4.00;;;;;;;24.33;51.54;99639.56;4954169;29;20195;-66
2023/07/11 02:50:34;;;;;;;5.67;4.27;;;;;;;24.34;51.35;99638.47;4954015;29;20196;-66
2023/07/11 02:53:01;;;;;;;7.40;4.70;;;;;;;24.36;52.10;99635.47;4953579;29;20271;-65
2023/07/11 02:55:28;;;;;;;9.43;4.67;;;;;;;24.40;52.23;99637.34;4952957;29;20758;-65
2023/07/11 02:57:55;;;;;;;6.07;4.47;;;;;;;24.42;51.39;99637.88;4953878;29;20260;-71
2023/07/11 03:00:21;;;;;;;5.83;4.50;;;;;;;24.10;51.97;99623.94;4953158;29;20199;-66
2023/07/11 03:02:48;;;;;;;7.33;5.00;;;;;;;24.09;53.62;99632.41;4953528;29;20199;-66
2023/07/11 03:05:17;;;;;;;6.23;5.03;;;;;;;24.11;52.82;99625.59;4954753;28;20196;-65
2023/07/11 03:07:43;;;;;;;6.23;4.80;;;;;;;24.08;52.47;99634.28;4972835;28;20194;-65
2023/07/11 03:10:10;;;;;;;5.23;4.73;;;;;;;24.02;52.93;99631.88;4973057;28;20284;-66
2023/07/11 03:12:37;;;;;;;7.47;4.93;;;;;;;23.92;52.65;99632.75;4973086;28;20288;-66
2023/07/11 03:15:05;;;;;;;9.53;6.27;;;;;;;23.87;53.01;99642.78;4961629;28;20206;-66
2023/07/11 03:17:32;;;;;;;9.77;5.20;;;;;;;24.07;53.29;99643.53;4953716;29;20262;-66
2023/07/11 03:19:59;;;;;;;5.90;5.37;;;;;;;24.00;52.79;99634.88;4953349;29;20205;-66
2023/07/11 03:22:27;;;;;;;10.07;5.40;;;;;;;24.13;52.95;99645.13;4953666;29;20257;-65
2023/07/11 03:24:53;;;;;;;6.53;5.37;;;;;;;24.15;52.47;99650.25;4953255;29;20676;-65
2023/07/11 03:27:20;;;;;;;7.57;4.83;;;;;;;24.06;52.50;99650.03;4953639;29;20202;-66
2023/07/11 03:29:47;;;;;;;5.17;4.87;;;;;;;23.97;53.05;99640.84;4953214;29;20734;-66
2023/07/11 03:32:15;;;;;;;7.13;5.50;;;;;;;23.86;53.10;99638.44;4953247;29;20199;-66
2023/07/11 03:34:41;;;;;;;9.37;5.00;;;;;;;23.85;53.29;99645.75;4952970;29;20258;-66
2023/07/11 03:37:08;;;;;;;6.10;5.00;;;;;;;23.76;53.58;99636.59;4953592;29;20207;-67
2023/07/11 03:39:36;;;;;;;10.63;5.90;;;;;;;23.75;53.63;99637.69;4953243;29;20214;-66
2023/07/11 03:42:03;;;;;;;6.43;4.73;;;;;;;23.80;53.88;99631.41;4953284;29;20206;-67
2023/07/11 03:44:29;;;;;;;5.37;4.97;;;;;;;23.92;53.38;99643.59;4952124;29;20263;-66
2023/07/11 03:46:56;;;;;;;9.60;5.87;;;;;;;24.09;52.75;99646.75;4953690;29;20270;-66
2023/07/11 03:49:23;;;;;;;25.70;5.90;;;;;;;24.21;52.84;99646.41;4953448;29;20199;-66
2023/07/11 03:51:49;;;;;;;17.70;5.53;;;;;;;24.21;52.24;99649.94;4953645;29;20200;-66
2023/07/11 03:54:16;;;;;;;5.83;5.33;;;;;;;24.19;53.08;99646.72;4952458;29;20710;-67
2023/07/11 03:56:44;;;;;;;7.47;5.40;;;;;;;24.20;52.43;99647.50;4953077;28;20675;-66
2023/07/11 03:59:11;;;;;;;6.83;5.60;;;;;;;24.16;52.70;99655.41;4955479;29;20231;-67
2023/07/11 04:01:38;;;;;;;6.17;5.07;;;;;;;24.12;52.98;99653.53;4956896;29;20196;-66
2023/07/11 04:04:05;;;;;;;5.47;5.00;;;;;;;24.20;53.08;99648.34;4955921;29;20207;-67
2023/07/11 04:06:31;;;;;;;8.33;5.77;;;;;;;24.19;53.06;99649.44;4968312;28;20748;-66
2023/07/11 04:08:58;;;;;;;18.97;5.37;;;;;;;24.24;53.05;99641.25;4976110;28;20715;-66
2023/07/11 04:11:25;;;;;;;12.20;5.00;;;;;;;24.43;53.03;99639.47;4976096;28;20227;-66
2023/07/11 04:13:53;;;;;;;7.67;5.53;;;;;;;25.03;50.87;99652.59;4964300;28;20227;-66
2023/07/11 04:16:19;;;;;;;10.87;5.60;;;;;;;25.84;49.42;99665.38;4956389;29;20549;-66
2023/07/11 04:18:46;;;;;;;11.07;5.67;;;;;;;26.41;47.15;99659.72;4956695;29;20616;-67
2023/07/11 04:21:13;;;;;;;23.50;6.07;;;;;;;27.04;45.49;99652.72;4956013;29;20200;-67
2023/07/11 04:23:40;;;;;;;15.67;5.40;;;;;;;27.71;43.56;99660.19;4956350;29;20196;-67
2023/07/11 04:26:06;;;;;;;8.03;4.67;;;;;;;28.24;42.88;99666.75;4956130;29;20204;-65
2023/07/11 04:28:33;;;;;;;30.10;7.70;;;;;;;28.91;40.75;99676.69;4956467;29;20196;-64
2023/07/11 04:31:01;;;;;;;10.17;5.27;;;;;;;29.48;38.39;99677.69;4955992;29;20255;-65
2023/07/11 04:33:28;;;;;;;10.77;4.83;;;;;;;29.90;37.24;99688.84;4956095;29;20215;-65
2023/07/11 04:35:55;;;;;;;15.87;5.77;;;;;;;30.42;36.27;99689.78;4955925;29;20220;-65
2023/07/11 04:38:21;;;;;;;8.90;5.97;;;;;;;30.68;37.35;99687.84;4956300;29;20200;-63
2023/07/11 04:40:48;;;;;;;9.30;5.23;;;;;;;31.14;36.75;99691.53;4956387;29;20196;-65
2023/07/11 04:43:15;;;;;;;8.77;5.30;;;;;;;31.72;35.26;99685.41;4955564;29;20196;-65
2023/07/11 04:45:41;;;;;;;8.40;4.93;;;;;;;32.35;34.03;99694.31;4956338;29;20258;-64
2023/07/11 04:48:09;;;;;;;8.67;5.80;;;;;;;32.75;33.21;99684.44;4955801;29;20200;-66
2023/07/11 04:50:36;;;;;;;8.23;5.33;;;;;;;32.92;32.31;99687.06;4955658;29;20200;-65
2023/07/11 04:53:03;;;;;;;9.13;5.10;;;;;;;33.10;31.64;99696.78;4955621;29;20223;-66
2023/07/11 04:55:29;;;;;;;24.03;6.33;;;;;;;33.33;31.96;99686.19;4955933;28;20264;-65
2023/07/11 04:57:56;;;;;;;12.13;5.57;;;;;;;33.27;31.45;99690.28;4954139;28;20202;-67
2023/07/11 05:00:23;;;;;;;16.30;5.83;;;;;;;33.12;31.46;99691.72;4953652;29;20193;-65
2023/07/11 05:02:50;;;;;;;5.53;4.57;;;;;;;33.21;31.06;99692.47;4954929;29;20204;-65
2023/07/11 05:05:18;;;;;;;7.73;5.00;;;;;;;32.78;31.32;99689.28;4956653;28;20644;-64
2023/07/11 05:07:45;;;;;;;5.13;4.63;;;;;;;33.11;31.61;99690.13;4955296;28;20199;-66
2023/07/11 05:10:11;;;;;;;6.83;5.23;;;;;;;33.48;31.21;99698.50;4953771;28;20294;-65
2023/07/11 05:12:38;;;;;;;7.40;4.50;;;;;;;33.21;30.98;99688.88;4954593;29;20275;-65
2023/07/11 05:15:05;;;;;;;11.37;4.57;;;;;;;33.39;30.93;99689.53;4954397;29;20262;-71
2023/07/11 05:17:32;;;;;;;8.60;4.50;;;;;;;33.61;31.30;99691.88;4955178;29;20203;-67
2023/07/11 05:19:59;;;;;;;10.93;4.77;;;;;;;33.86;30.72;99688.00;4955104;29;20200;-65
2023/07/11 05:22:27;;;;;;;14.87;4.97;;;;;;;34.16;30.08;99694.91;4955358;29;20275;-66
2023/07/11 05:24:54;;;;;;;12.65;4.60;;;;;;;34.38;29.57;99697.19;4954858;29;20259;-66
2023/07/11 05:27:21;;;;;;;13.65;4.82;;;;;;;34.61;29.49;99692.75;4954203;29;20686;-66
2023/07/11 05:29:48;;;;;;;13.73;4.90;;;;;;;34.50;29.32;99691.66;4951314;29;20191;-68
2023/07/11 05:32:15;;;;;;;8.27;4.80;;;;;;;34.67;29.19;99696.88;4952736;29;20204;-68
2023/07/11 05:34:42;;;;;;;20.45;5.45;;;;;;;34.65;28.95;99694.47;4952287;29;20288;-68
2023/07/11 05:37:08;;;;;;;10.48;5.18;;;;;;;34.55;28.85;99696.91;4951896;29;20200;-69
2023/07/11 05:39:36;;;;;;;17.17;5.65;;;;;;;34.58;28.98;99696.22;4952943;29;20257;-67
2023/07/11 05:42:03;;;;;;;10.18;5.03;;;;;;;34.69;28.63;99700.06;4953445;29;20267;-67
2023/07/11 05:44:31;;;;;;;7.78;3.90;;;;;;;34.90;28.99;99698.00;4951694;29;20267;-67
2023/07/11 05:46:58;;;;;;;8.10;4.57;;;;;;;35.22;28.18;99702.41;4950813;29;20254;-68
2023/07/11 05:49:24;;;;;;;12.98;4.45;;;;;;;35.24;27.86;99702.88;4951565;29;20207;-67
2023/07/11 05:51:51;;;;;;;10.23;4.68;;;;;;;35.29;27.55;99697.94;4951478;29;20261;-68
2023/07/11 05:54:18;;;;;;;9.23;4.55;;;;;;;35.20;27.95;99696.44;4951498;29;20231;-67
2023/07/11 05:56:46;;;;;;;13.75;4.30;;;;;;;35.38;27.40;99700.50;4951532;29;20200;-69
2023/07/11 05:59:12;;;;;;;16.00;5.13;;;;;;;35.59;27.55;99696.34;4952791;29;20251;-67
2023/07/11 06:01:39;;;;;;;8.90;4.78;;;;;;;35.76;27.77;99701.53;4952823;29;20196;-66
2023/07/11 06:04:10;;;;;;;10.25;4.25;;;;;;;35.83;26.94;99696.19;4953165;29;20751;-66
2023/07/11 06:06:41;;;;;;;8.27;4.50;;;;;;;36.10;26.46;99700.78;4965544;28;20627;-67
2023/07/11 06:09:09;;;;;;;9.43;4.20;;;;;;;36.03;27.44;99683.22;4972464;28;20714;-68
2023/07/11 06:11:36;;;;;;;19.75;4.47;;;;;;;36.33;27.63;99692.66;4972663;28;20203;-66
2023/07/11 06:14:04;;;;;;;9.55;4.25;;;;;;;36.18;26.71;99690.72;4972514;28;20285;-67
2023/07/11 06:16:31;;;;;;;8.38;4.38;;;;;;;36.32;26.38;99691.84;4972574;28;20617;-67
2023/07/11 06:18:58;;;;;;;10.55;4.43;;;;;;;36.17;27.32;99689.13;4972720;28;20202;-66
2023/07/11 06:21:25;;;;;;;4.78;4.38;;;;;;;36.27;26.59;99677.50;4971888;28;20195;-66
2023/07/11 06:23:51;;;;;;;14.23;3.97;;;;;;;36.37;26.48;99680.50;4972406;28;20258;-66
2023/07/11 06:26:18;;;;;;;4.50;4.18;;;;;;;36.57;26.24;99686.84;4972107;28;20678;-67
2023/07/11 06:28:45;;;;;;;7.65;4.35;;;;;;;36.41;27.25;99683.34;4972982;28;20564;-68
2023/07/11 06:31:13;;;;;;;4.47;4.00;;;;;;;36.50;26.97;99681.97;4972138;28;20262;-66
2023/07/11 06:33:41;;;;;;;4.82;4.18;;;;;;;36.59;26.46;99690.06;4972787;28;20321;-67
2023/07/11 06:36:09;;;;;;;6.30;3.90;;;;;;;36.50;27.18;99675.66;4972762;28;20203;-68
2023/07/11 06:38:35;;;;;;;7.53;4.15;;;;;;;36.41;26.52;99681.38;4973098;28;20266;-66
2023/07/11 06:41:03;;;;;;;17.55;4.93;;;;;;;36.40;26.72;99687.28;4972546;28;20350;-66
2023/07/11 06:43:30;;;;;;;7.78;4.70;;;;;;;36.84;26.44;99683.09;4972201;28;20258;-66
2023/07/11 06:45:59;;;;;;;4.88;4.43;;;;;;;36.80;26.49;99673.94;4972219;28;20257;-66
2023/07/11 06:48:30;;;;;;;3.85;3.65;;;;;;;36.58;26.80;99674.63;4971888;28;20199;-68
2023/07/11 06:50:59;;;;;;;9.30;4.10;;;;;;;36.73;26.54;99674.59;4971903;28;20217;-68
2023/07/11 06:53:28;;;;;;;7.57;3.92;;;;;;;36.69;26.00;99678.44;4972125;28;20191;-68
2023/07/11 06:55:55;;;;;;;8.13;4.35;;;;;;;36.47;26.89;99671.66;4972167;28;20195;-68
2023/07/11 06:58:23;;;;;;;10.60;4.50;;;;;;;36.55;26.92;99672.59;4972150;28;20195;-68
2023/07/11 07:00:54;;;;;;;10.23;4.95;;;;;;;36.53;26.77;99663.81;4971962;28;20574;-69
2023/07/11 07:03:21;;;;;;;10.43;4.78;;;;;;;36.64;27.33;99662.09;4972343;28;20199;-69
2023/07/11 07:05:51;;;;;;;15.45;5.45;;;;;;;36.94;26.75;99663.13;4964956;28;20684;-69
2023/07/11 07:08:19;;;;;;;9.68;4.32;;;;;;;36.73;26.03;99669.06;4953040;29;20192;-69
2023/07/11 07:10:47;;;;;;;7.47;4.82;;;;;;;36.60;26.95;99672.28;4952684;29;20262;-68
2023/07/11 07:13:14;;;;;;;8.75;4.43;;;;;;;36.57;27.01;99665.50;4952811;29;20196;-68
2023/07/11 07:15:41;;;;;;;11.52;4.53;;;;;;;36.56;26.36;99669.47;4952791;29;20196;-70
2023/07/11 07:18:08;;;;;;;7.95;4.32;;;;;;;36.01;27.25;99666.19;4952491;29;20204;-68
2023/07/11 07:20:35;;;;;;;7.38;3.97;;;;;;;35.15;27.00;99663.56;4952373;29;20255;-69
2023/07/11 07:23:04;;;;;;;8.05;5.05;;;;;;;35.25;27.41;99657.50;4953002;29;20204;-66
2023/07/11 07:25:31;;;;;;;13.40;5.30;;;;;;;35.59;27.65;99659.59;4953012;29;20200;-69
2023/07/11 07:27:58;;;;;;;4.18;3.78;;;;;;;35.71;26.84;99654.78;4953487;29;20208;-68
2023/07/11 07:30:25;;;;;;;8.10;4.88;;;;;;;35.83;26.90;99657.47;4946084;29;20202;-70
2023/07/11 07:32:52;;;;;;;9.68;4.28;;;;;;;35.87;26.78;99654.78;4953151;28;20664;-72
2023/07/11 07:35:18;;;;;;;7.43;4.70;;;;;;;35.67;27.17;99658.59;4955658;28;20255;-73
2023/07/11 07:37:45;;;;;;;4.38;4.18;;;;;;;35.09;27.52;99662.19;4962359;28;20192;-69
2023/07/11 07:40:14;;;;;;;5.13;4.32;;;;;;;35.21;27.94;99654.66;4970717;28;20672;-71
2023/07/11 07:42:41;;;;;;;6.05;4.80;;;;;;;35.30;26.99;99651.75;4975283;28;20246;-70
2023/07/11 07:45:08;;;;;;;6.47;5.30;;;;;;;35.44;26.87;99654.88;4973935;28;20639;-70
2023/07/11 07:47:35;;;;;;;10.88;5.45;;;;;;;35.40;26.53;99645.69;4965188;28;20735;-72
2023/07/11 07:50:02;;;;;;;19.65;6.10;;;;;;;35.33;26.90;99653.81;4954608;29;20196;-75
2023/07/11 07:52:29;;;;;;;7.20;4.68;;;;;;;35.38;26.59;99650.78;4952278;28;20200;-74
2023/07/11 07:54:55;;;;;;;5.60;4.82;;;;;;;35.31;26.97;99651.38;4955292;29;20327;-74
2023/07/11 07:57:23;;;;;;;7.28;5.38;;;;;;;35.19;26.98;99647.88;4955535;29;20251;-71
2023/07/11 07:59:50;;;;;;;27.08;5.95;;;;;;;35.37;26.97;99650.00;4953406;29;20200;-72
2023/07/11 08:02:17;;;;;;;12.15;6.18;;;;;;;35.14;26.87;99645.38;4955357;28;20200;-73
2023/07/11 08:04:43;;;;;;;11.40;5.07;;;;;;;35.30;27.24;99637.94;4961364;28;20204;-73
2023/07/11 08:07:10;;;;;;;12.77;5.40;;;;;;;35.33;26.92;99642.75;4964273;28;20625;-71
2023/07/11 08:09:37;;;;;;;10.23;5.05;;;;;;;35.29;27.06;99637.13;4958767;28;20223;-73
2023/07/11 08:12:08;;;;;;;8.50;5.00;;;;;;;35.37;27.12;99638.13;4963797;28;20192;-71
2023/07/11 08:14:37;;;;;;;5.35;4.85;;;;;;;35.30;27.48;99637.94;4963042;28;20629;-71
2023/07/11 08:17:04;;;;;;;14.85;5.40;;;;;;;35.64;27.03;99637.22;4963084;28;20576;-70
2023/07/11 08:19:31;;;;;;;7.05;5.18;;;;;;;36.03;26.44;99633.44;4966240;28;20195;-68
2023/07/11 08:21:58;;;;;;;5.93;4.18;;;;;;;36.15;25.82;99622.25;4964227;28;20253;-71
2023/07/11 08:24:25;;;;;;;7.13;4.65;;;;;;;36.03;26.00;99638.97;4954899;28;20658;-69
2023/07/11 08:26:52;;;;;;;9.23;4.47;;;;;;;35.87;25.70;99630.72;4955091;29;20206;-71
2023/07/11 08:29:19;;;;;;;7.05;4.15;;;;;;;35.40;25.87;99626.34;4964175;28;20267;-74
2023/07/11 08:31:47;;;;;;;13.75;5.05;;;;;;;35.63;25.71;99625.34;4959826;28;20225;-72
2023/07/11 08:34:15;;;;;;;13.75;4.60;;;;;;;35.68;26.09;99632.59;4959998;28;20299;-73
2023/07/11 08:36:41;;;;;;;6.88;4.38;;;;;;;35.64;26.12;99631.69;4960549;28;20258;-72
2023/07/11 08:39:08;;;;;;;32.42;6.55;;;;;;;35.71;25.61;99632.66;4964456;28;20684;-72
2023/07/11 08:41:40;;;;;;;11.57;4.57;;;;;;;35.65;26.31;99625.00;4964317;28;20290;-73
2023/07/11 08:44:13;;;;;;;11.38;4.55;;;;;;;35.80;26.13;99629.75;4960049;28;20219;-72
2023/07/11 08:46:44;;;;;;;6.88;4.22;;;;;;;35.49;25.83;99640.78;4960846;28;20187;-70
2023/07/11 08:49:21;;;;;;;4.50;4.22;;;;;;;35.56;26.41;99635.44;4963711;28;20656;-72
2023/07/11 08:51:52;;;;;;;10.55;4.25;;;;;;;35.51;26.41;99624.63;4962064;28;20283;-70
2023/07/11 08:54:25;;;;;;;9.75;4.28;;;;;;;35.81;26.14;99626.59;4956849;28;20758;-71
2023/07/11 08:56:52;;;;;;;17.67;5.50;;;;;;;36.27;25.93;99622.16;4964526;28;20179;-71
2023/07/11 08:59:25;;;;;;;7.30;4.35;;;;;;;36.29;25.23;99626.16;4962671;28;20199;-71
2023/07/11 09:01:57;;;;;;;12.13;5.00;;;;;;;35.96;25.70;99623.00;4962225;28;20184;-71
2023/07/11 09:04:26;;;;;;;6.88;3.85;;;;;;;36.21;25.98;99618.84;4958554;28;20223;-69
2023/07/11 09:06:56;;;;;;;22.08;4.88;;;;;;;36.53;25.36;99628.66;4969972;28;20250;-70
2023/07/11 09:09:25;;;;;;;9.25;4.63;;;;;;;36.54;25.15;99621.16;4958050;28;20282;-70
2023/07/11 09:12:09;;;;;;;5.85;3.90;;;;;;;36.48;25.40;99617.06;4953484;29;20255;-71
2023/07/11 09:14:48;;;;;;;10.43;4.20;;;;;;;36.42;25.78;99618.53;4953262;29;20211;-71
2023/07/11 09:17:25;;;;;;;4.10;3.80;;;;;;;36.27;25.83;99613.84;4954021;29;20188;-70
2023/07/11 09:20:07;;;;;;;9.10;4.07;;;;;;;36.62;25.48;99618.16;4954885;29;20188;-71
2023/07/11 09:22:44;;;;;;;7.25;4.40;;;;;;;36.69;26.05;99606.44;4955020;29;20719;-69
2023/07/11 09:25:13;;;;;;;18.23;4.90;;;;;;;36.33;25.91;99609.63;4954680;29;20207;-72
2023/07/11 09:27:44;;;;;;;4.20;3.90;;;;;;;36.43;25.33;99609.88;4954099;29;20255;-71
2023/07/11 09:30:19;;;;;;;6.18;4.03;;;;;;;36.57;26.04;99595.47;4954779;29;20235;-68
2023/07/11 09:32:46;;;;;;;44.83;7.13;;;;;;;36.67;25.53;99597.69;4954958;28;20191;-69
2023/07/11 09:35:24;;;;;;;13.75;4.47;;;;;;;36.57;26.44;99598.25;4954638;29;20224;-68
2023/07/11 09:37:56;;;;;;;8.18;4.32;;;;;;;36.32;26.18;99610.78;4954791;29;20591;-68
2023/07/11 09:40:31;;;;;;;12.07;4.05;;;;;;;36.56;26.35;99602.19;4935662;29;20193;-68
2023/07/11 09:42:58;;;;;;;8.23;4.20;;;;;;;36.65;26.39;99591.69;4935915;29;20255;-68
2023/07/11 09:45:31;;;;;;;6.30;3.97;;;;;;;36.83;26.22;99590.09;4935764;29;20201;-68
2023/07/11 09:48:04;;;;;;;9.20;4.15;;;;;;;37.05;25.62;99584.59;4935376;29;20248;-69
2023/07/11 09:50:54;;;;;;;27.40;5.93;;;;;;;36.61;25.54;99583.31;4935438;29;20203;-68
2023/07/11 09:53:26;;;;;;;4.70;4.30;;;;;;;36.64;26.08;99577.06;4935346;29;20201;-69
2023/07/11 09:55:55;;;;;;;25.55;5.25;;;;;;;36.58;26.03;99586.03;4935498;29;20594;-68
2023/07/11 09:58:21;;;;;;;4.97;4.20;;;;;;;36.09;26.86;99571.16;4935193;29;20739;-68
2023/07/11 10:00:50;;;;;;;9.98;4.45;;;;;;;36.21;27.38;99571.00;4935476;29;20267;-69
2023/07/11 10:03:18;;;;;;;13.30;5.35;;;;;;;36.41;27.21;99578.16;4935321;29;20196;-69
2023/07/11 10:05:49;;;;;;;4.90;4.43;;;;;;;36.35;26.48;99585.16;4946426;28;20249;-69
2023/07/11 10:08:18;;;;;;;7.85;4.70;;;;;;;36.36;26.86;99570.16;4973630;28;20570;-69
2023/07/11 10:10:47;;;;;;;7.00;4.70;;;;;;;36.18;27.56;99568.97;4974093;28;20285;-69
2023/07/11 10:13:16;;;;;;;5.68;4.20;;;;;;;36.39;27.42;99569.44;4973771;28;20222;-69
2023/07/11 10:15:44;;;;;;;8.98;4.40;;;;;;;36.74;26.58;99570.13;4973762;28;20223;-69
2023/07/11 10:18:18;;;;;;;7.63;4.82;;;;;;;36.40;27.11;99565.50;4973982;28;20199;-68
2023/07/11 10:20:49;;;;;;;8.00;4.43;;;;;;;36.67;26.88;99558.91;4973796;28;20254;-69
2023/07/11 10:23:21;;;;;;;7.50;4.47;;;;;;;36.74;26.45;99550.75;4973200;28;20250;-69
2023/07/11 10:25:52;;;;;;;6.10;4.68;;;;;;;36.83;26.57;99557.66;4973772;28;20209;-69
2023/07/11 10:28:27;;;;;;;6.63;4.53;;;;;;;37.07;26.77;99550.97;4973456;28;20191;-69
2023/07/11 10:30:56;;;;;;;5.60;5.10;;;;;;;36.57;27.10;99548.41;4972013;28;20191;-69
2023/07/11 10:33:28;;;;;;;6.72;4.30;;;;;;;36.60;27.00;99542.16;4953994;29;20605;-70
2023/07/11 10:36:05;;;;;;;4.95;4.50;;;;;;;36.66;27.25;99540.72;4954216;29;20216;-69
2023/07/11 10:38:47;;;;;;;10.50;4.95;;;;;;;36.86;27.12;99545.03;4954127;29;20254;-69
2023/07/11 10:41:18;;;;;;;4.80;4.40;;;;;;;36.58;27.59;99542.53;4954213;29;20254;-69
2023/07/11 10:43:46;;;;;;;10.25;4.70;;;;;;;36.78;26.90;99537.75;4953691;29;20672;-69
2023/07/11 10:46:41;;;;;;;5.25;4.57;;;;;;;36.78;27.07;99529.47;4953772;29;20567;-69
2023/07/11 10:49:14;;;;;;;6.97;4.75;;;;;;;36.81;26.71;99537.03;4954036;29;20561;-69
2023/07/11 10:51:50;;;;;;;5.30;4.30;;;;;;;36.98;26.47;99522.69;4953703;29;20645;-69
2023/07/11 10:54:22;;;;;;;8.32;4.22;;;;;;;37.03;27.01;99536.25;4953827;29;20274;-69
2023/07/11 10:56:55;;;;;;;14.13;5.47;;;;;;;36.94;26.74;99541.22;4953938;29;20216;-69
2023/07/11 10:59:23;;;;;;;9.30;4.70;;;;;;;36.65;26.97;99534.34;4953810;29;20196;-68
2023/07/11 11:02:00;;;;;;;7.47;4.57;;;;;;;36.92;26.26;99526.97;4953463;29;20200;-69
2023/07/11 11:04:43;;;;;;;64.82;8.95;;;;;;;36.54;26.50;99527.03;4953578;29;20247;-69
2023/07/11 11:07:22;;;;;;;17.58;5.25;;;;;;;36.65;27.09;99528.81;4971893;28;20191;-69
2023/07/11 11:09:55;;;;;;;7.53;5.03;;;;;;;36.35;27.36;99524.28;4977377;28;20242;-69
2023/07/11 11:12:34;;;;;;;13.52;4.85;;;;;;;36.73;27.55;99524.22;4977145;28;20192;-69
2023/07/11 11:15:17;;;;;;;6.15;4.55;;;;;;;36.82;26.82;99522.81;4976701;28;20659;-68
2023/07/11 11:17:54;;;;;;;8.68;5.05;;;;;;;36.95;26.60;99520.69;4977046;28;20184;-69
2023/07/11 11:20:28;;;;;;;10.05;4.43;;;;;;;37.08;27.00;99513.78;4976489;28;20214;-69
2023/07/11 11:23:24;;;;;;;14.90;5.60;;;;;;;36.87;27.09;99510.66;4975945;28;20187;-68
2023/07/11 11:26:08;;;;;;;5.57;5.05;;;;;;;36.89;26.73;99519.38;4955796;28;20203;-72
2023/07/11 11:28:44;;;;;;;10.10;5.15;;;;;;;37.12;26.38;99504.34;4965508;28;20195;-71
2023/07/11 11:31:21;;;;;;;6.45;5.07;;;;;;;37.36;25.89;99507.91;4967844;28;20212;-71
2023/07/11 11:34:01;;;;;;;10.82;5.00;;;;;;;37.43;26.40;99502.47;4962101;28;20195;-72
2023/07/11 11:36:32;;;;;;;6.47;4.53;;;;;;;37.52;25.99;99509.38;4955858;29;20211;-68
2023/07/11 11:39:14;;;;;;;7.97;5.15;;;;;;;37.47;25.78;99514.44;4945550;29;20251;-68